• Join FlightAware (Why Join?)
  • Login
  • US Flag 
03:58AM EST


 

Airport Tracker/Info


-or-


 

Live Flight TrackerFlight Track Log ✈ CTA400 ✈ 03-Jun-2013 ✈ KLBB - KAMA

Flight Track Log - Related Links

Times and Time Zones

All times are in EDT time to prevent confusion due to time zone crossing. See the CTA400 flight status page for this flight to view local times or setup timezone preferences in your user account.

Time Position Orientation Groundspeed Altitude Reporting Facility
EDT Latitude Longitude Course Direction KTS MPH feet Rate Location/Type
10:20AM 33.6689 -101.7883 18° North 132 152 4,400  Level Fort Worth Center
10:21AM 33.7028 -101.7753 18° North 148 170 5,800 1,620 Climbing Fort Worth Center
10:22AM 33.7450 -101.7622 14° North 137 158 7,700 1,260 Climbing Fort Worth Center
10:23AM 33.7806 -101.7592 North 128 147 8,500 300 Climbing Fort Worth Center
10:24AM 33.8267 -101.7539 North 170 196 8,400  Descending Fort Worth Center
10:25AM 33.8747 -101.7511 North 175 201 8,500 60 Climbing Fort Worth Center
10:26AM 33.9233 -101.7386 12° North 170 196 8,600  Climbing Fort Worth Center
10:27AM 33.9608 -101.7356 North 173 199 8,500 -120 Descending Fort Worth Center
10:28AM 33.9778 -101.7314 12° North 176 203 8,500 -120 Level Fort Worth Center
10:29AM 34.0322 -101.7242 North 196 226 8,400 -60 Descending Fort Worth Center
10:30AM 34.0744 -101.7136 12° North 180 207 8,400  Level Fort Worth Center
10:31AM 34.1244 -101.7086 North 180 207 8,500  Climbing Fort Worth Center
10:32AM 34.1706 -101.7083 360° North 180 207 8,500  Level Fort Worth Center
10:33AM 34.2228 -101.7008 North 175 201 8,500 -120 Level Fort Worth Center
10:35AM 34.3247 -101.6831 North 176 203 8,300 -60 Descending Albuquerque Center
10:36AM 34.3717 -101.6775 North 174 200 8,400 60 Climbing Albuquerque Center
10:37AM 34.4186 -101.6719 North 171 197 8,500  Climbing Albuquerque Center
10:38AM 34.4664 -101.6644 North 171 197 8,500 -60 Level Albuquerque Center
10:39AM 34.5164 -101.6553 North 176 203 8,400  Descending Albuquerque Center
10:40AM 34.5644 -101.6469 North 176 203 8,500  Climbing Albuquerque Center
10:41AM 34.6217 -101.6333 11° North 176 203 8,400 -60 Descending Albuquerque Center
10:42AM 34.6717 -101.6231 10° North 178 205 8,400  Level Albuquerque Center
10:43AM 34.7203 -101.6133 North 178 205 8,400  Level Albuquerque Center
10:44AM 34.7694 -101.6064 North 178 205 8,400  Level Albuquerque Center
10:45AM 34.8181 -101.6017 North 177 204 8,400 -300 Level Albuquerque Center
10:46AM 34.8675 -101.5986 North 177 204 7,800 -720 Descending Albuquerque Center
10:47AM 34.9286 -101.5994 359° North 180 207 7,000 -780 Descending Albuquerque Center
10:48AM 34.9808 -101.6036 356° North 184 212 6,300 -720 Descending Albuquerque Center
10:49AM 35.0317 -101.6103 354° North 185 213 5,600 -660 Descending Albuquerque Center
10:50AM 35.0803 -101.6200 351° North 181 208 5,000 -360 Descending Albuquerque Center
10:51AM 35.1275 -101.6261 354° North 176 203 4,900 -120 Descending Albuquerque Center
10:52AM 35.1739 -101.6253 North 171 197 4,800 -180 Descending Albuquerque Center
10:53AM 35.2119 -101.6328 351° North 164 189 4,600 -300 Descending Albuquerque Center
10:54AM 35.2433 -101.6569 328° Northwest 141 162 4,300 -360 Descending Albuquerque Center
10:55AM 35.2403 -101.6878 263° West 127 146 3,900 -420 Descending Albuquerque Center